Half Day, Illinois
Current Conditions -  °F | °C
As of 10:26 AM on Sunday 25 Jan 2015 (Local Time) from KPWK Reporting Station
Light Snow Light Snow  
Wind Chill: -6°   Ceiling: 900
Heat Index: -1°   Visibility: 1.2mi
Dew Point: -3°   Wind: 14mph
Humidity: 85%   Direction: 30°NNE
Pressure: 29.83"   Gusts: 28mph
Location:  42.1941°N, 87.9317°W
Report Text: KPWK 251626Z 03012G24KT 1 1/4SM -SN BR OVC009 M01/M03 A2983 RMK AO2 P0000 T10061028
Loading
Personal Weather Stations






























Interactive Weather Map New forecast layout! Learn more

10-Day Weather Forecast

Advertisements
Track Severe Weather on mobile